sensor_id;sensor_type;location;lat;lon;timestamp;P1;durP1;ratioP1;P2;durP2;ratioP2
46563;SDS011;32291;52.010;4.446;2022-10-13T00:00:46;15.10;;;11.73;;
46563;SDS011;32291;52.010;4.446;2022-10-13T00:01:49;15.40;;;12.50;;
46563;SDS011;32291;52.010;4.446;2022-10-13T00:02:57;17.48;;;12.43;;
46563;SDS011;32291;52.010;4.446;2022-10-13T00:04:03;19.23;;;12.20;;
46563;SDS011;32291;52.010;4.446;2022-10-13T00:05:08;15.07;;;11.73;;
46563;SDS011;32291;52.010;4.446;2022-10-13T00:06:14;15.57;;;11.65;;
46563;SDS011;32291;52.010;4.446;2022-10-13T00:07:25;15.60;;;12.30;;
46563;SDS011;32291;52.010;4.446;2022-10-13T00:08:27;16.30;;;12.20;;
46563;SDS011;32291;52.010;4.446;2022-10-13T00:09:33;12.65;;;11.10;;
46563;SDS011;32291;52.010;4.446;2022-10-13T00:10:35;14.20;;;12.45;;
46563;SDS011;32291;52.010;4.446;2022-10-13T00:11:51;14.70;;;12.65;;
46563;SDS011;32291;52.010;4.446;2022-10-13T00:13:03;16.13;;;12.70;;
46563;SDS011;32291;52.010;4.446;2022-10-13T00:14:08;15.63;;;11.15;;
46563;SDS011;32291;52.010;4.446;2022-10-13T00:15:13;16.80;;;12.82;;
46563;SDS011;32291;52.010;4.446;2022-10-13T00:16:18;16.52;;;12.27;;
46563;SDS011;32291;52.010;4.446;2022-10-13T00:17:23;15.77;;;13.45;;
46563;SDS011;32291;52.010;4.446;2022-10-13T00:18:25;19.17;;;12.98;;
46563;SDS011;32291;52.010;4.446;2022-10-13T00:19:28;15.23;;;13.05;;
46563;SDS011;32291;52.010;4.446;2022-10-13T00:20:33;16.27;;;13.32;;
46563;SDS011;32291;52.010;4.446;2022-10-13T00:21:40;15.85;;;12.55;;
46563;SDS011;32291;52.010;4.446;2022-10-13T00:22:43;17.77;;;12.63;;
46563;SDS011;32291;52.010;4.446;2022-10-13T00:23:46;16.42;;;12.70;;
46563;SDS011;32291;52.010;4.446;2022-10-13T00:24:54;17.75;;;14.00;;
46563;SDS011;32291;52.010;4.446;2022-10-13T00:25:57;17.63;;;13.50;;
46563;SDS011;32291;52.010;4.446;2022-10-13T00:27:10;17.33;;;14.20;;
46563;SDS011;32291;52.010;4.446;2022-10-13T00:28:14;17.70;;;13.30;;
46563;SDS011;32291;52.010;4.446;2022-10-13T00:29:25;17.42;;;13.77;;
46563;SDS011;32291;52.010;4.446;2022-10-13T00:30:27;15.80;;;13.75;;
46563;SDS011;32291;52.010;4.446;2022-10-13T00:31:36;16.77;;;13.50;;
46563;SDS011;32291;52.010;4.446;2022-10-13T00:32:38;18.48;;;14.13;;
46563;SDS011;32291;52.010;4.446;2022-10-13T00:33:48;20.80;;;14.90;;
46563;SDS011;32291;52.010;4.446;2022-10-13T00:35:01;17.73;;;12.95;;
46563;SDS011;32291;52.010;4.446;2022-10-13T00:36:05;18.15;;;14.18;;
46563;SDS011;32291;52.010;4.446;2022-10-13T00:37:08;16.15;;;14.07;;
46563;SDS011;32291;52.010;4.446;2022-10-13T00:38:13;20.38;;;13.43;;
46563;SDS011;32291;52.010;4.446;2022-10-13T00:39:21;20.55;;;15.20;;
46563;SDS011;32291;52.010;4.446;2022-10-13T00:40:24;19.88;;;13.90;;
46563;SDS011;32291;52.010;4.446;2022-10-13T00:41:26;21.00;;;14.50;;
46563;SDS011;32291;52.010;4.446;2022-10-13T00:42:29;15.98;;;13.48;;
46563;SDS011;32291;52.010;4.446;2022-10-13T00:45:02;17.50;;;13.25;;
46563;SDS011;32291;52.010;4.446;2022-10-13T00:46:20;15.85;;;14.13;;
46563;SDS011;32291;52.010;4.446;2022-10-13T00:47:33;16.20;;;14.32;;
46563;SDS011;32291;52.010;4.446;2022-10-13T00:48:41;16.23;;;14.52;;
46563;SDS011;32291;52.010;4.446;2022-10-13T00:49:46;16.88;;;14.85;;
46563;SDS011;32291;52.010;4.446;2022-10-13T00:50:51;16.73;;;14.00;;
46563;SDS011;32291;52.010;4.446;2022-10-13T00:51:56;21.33;;;14.85;;
46563;SDS011;32291;52.010;4.446;2022-10-13T00:52:58;19.05;;;14.85;;
46563;SDS011;32291;52.010;4.446;2022-10-13T00:54:02;19.27;;;16.50;;
46563;SDS011;32291;52.010;4.446;2022-10-13T00:55:11;19.25;;;16.25;;
46563;SDS011;32291;52.010;4.446;2022-10-13T00:56:19;15.85;;;14.07;;
46563;SDS011;32291;52.010;4.446;2022-10-13T00:57:29;23.63;;;17.65;;
46563;SDS011;32291;52.010;4.446;2022-10-13T00:58:33;23.00;;;17.05;;
46563;SDS011;32291;52.010;4.446;2022-10-13T00:59:40;23.42;;;17.13;;
46563;SDS011;32291;52.010;4.446;2022-10-13T01:00:46;18.95;;;16.58;;
46563;SDS011;32291;52.010;4.446;2022-10-13T01:01:53;23.88;;;17.02;;
46563;SDS011;32291;52.010;4.446;2022-10-13T01:03:09;19.27;;;16.67;;
46563;SDS011;32291;52.010;4.446;2022-10-13T01:04:12;18.30;;;16.40;;
46563;SDS011;32291;52.010;4.446;2022-10-13T01:05:19;19.90;;;17.35;;
46563;SDS011;32291;52.010;4.446;2022-10-13T01:06:24;21.67;;;16.52;;
46563;SDS011;32291;52.010;4.446;2022-10-13T01:07:28;21.23;;;16.20;;
46563;SDS011;32291;52.010;4.446;2022-10-13T01:08:32;17.00;;;15.20;;
46563;SDS011;32291;52.010;4.446;2022-10-13T01:09:35;17.45;;;15.55;;
46563;SDS011;32291;52.010;4.446;2022-10-13T01:12:47;20.70;;;16.15;;
46563;SDS011;32291;52.010;4.446;2022-10-13T01:14:41;17.65;;;14.20;;
46563;SDS011;32291;52.010;4.446;2022-10-13T01:18:34;16.33;;;14.23;;
46563;SDS011;32291;52.010;4.446;2022-10-13T01:21:57;18.83;;;14.40;;
46563;SDS011;32291;52.010;4.446;2022-10-13T01:27:29;25.25;;;16.35;;
46563;SDS011;32291;52.010;4.446;2022-10-13T01:31:15;19.25;;;15.45;;
46563;SDS011;32291;52.010;4.446;2022-10-13T01:32:49;19.58;;;14.85;;
46563;SDS011;32291;52.010;4.446;2022-10-13T01:34:25;18.77;;;15.80;;
46563;SDS011;32291;52.010;4.446;2022-10-13T01:39:11;20.65;;;15.30;;
46563;SDS011;32291;52.010;4.446;2022-10-13T01:40:37;18.95;;;15.40;;
46563;SDS011;32291;52.010;4.446;2022-10-13T01:41:54;17.52;;;15.38;;
46563;SDS011;32291;52.010;4.446;2022-10-13T01:43:16;22.58;;;16.75;;
46563;SDS011;32291;52.010;4.446;2022-10-13T01:44:42;17.05;;;15.25;;
46563;SDS011;32291;52.010;4.446;2022-10-13T01:46:08;20.67;;;16.25;;
46563;SDS011;32291;52.010;4.446;2022-10-13T01:47:44;20.23;;;16.48;;
46563;SDS011;32291;52.010;4.446;2022-10-13T01:48:55;20.17;;;16.77;;
46563;SDS011;32291;52.010;4.446;2022-10-13T01:50:05;23.00;;;16.60;;
46563;SDS011;32291;52.010;4.446;2022-10-13T01:51:12;20.13;;;15.27;;
46563;SDS011;32291;52.010;4.446;2022-10-13T01:52:38;19.83;;;16.50;;
46563;SDS011;32291;52.010;4.446;2022-10-13T01:54:52;21.98;;;16.42;;
46563;SDS011;32291;52.010;4.446;2022-10-13T01:56:06;21.77;;;16.23;;
46563;SDS011;32291;52.010;4.446;2022-10-13T01:58:49;23.00;;;18.60;;
46563;SDS011;32291;52.010;4.446;2022-10-13T02:00:00;22.92;;;19.48;;
46563;SDS011;32291;52.010;4.446;2022-10-13T02:01:27;24.00;;;20.33;;
46563;SDS011;32291;52.010;4.446;2022-10-13T02:03:20;26.52;;;19.85;;
46563;SDS011;32291;52.010;4.446;2022-10-13T02:04:57;21.00;;;18.63;;
46563;SDS011;32291;52.010;4.446;2022-10-13T02:06:57;23.83;;;18.17;;
46563;SDS011;32291;52.010;4.446;2022-10-13T02:11:10;26.35;;;16.88;;
46563;SDS011;32291;52.010;4.446;2022-10-13T02:12:33;20.63;;;16.20;;
46563;SDS011;32291;52.010;4.446;2022-10-13T02:15:19;21.52;;;17.48;;
46563;SDS011;32291;52.010;4.446;2022-10-13T02:16:38;21.02;;;17.80;;
46563;SDS011;32291;52.010;4.446;2022-10-13T02:17:48;19.00;;;16.98;;
46563;SDS011;32291;52.010;4.446;2022-10-13T02:18:56;25.10;;;19.90;;
46563;SDS011;32291;52.010;4.446;2022-10-13T02:20:04;26.48;;;18.35;;
46563;SDS011;32291;52.010;4.446;2022-10-13T02:21:09;23.63;;;18.85;;
46563;SDS011;32291;52.010;4.446;2022-10-13T02:22:13;26.83;;;17.63;;
46563;SDS011;32291;52.010;4.446;2022-10-13T02:23:19;25.60;;;19.15;;
46563;SDS011;32291;52.010;4.446;2022-10-13T02:24:28;25.70;;;18.52;;
46563;SDS011;32291;52.010;4.446;2022-10-13T02:25:33;26.42;;;19.52;;
46563;SDS011;32291;52.010;4.446;2022-10-13T02:26:42;26.20;;;18.92;;
46563;SDS011;32291;52.010;4.446;2022-10-13T02:27:45;21.60;;;18.92;;
46563;SDS011;32291;52.010;4.446;2022-10-13T02:28:48;28.83;;;20.30;;
46563;SDS011;32291;52.010;4.446;2022-10-13T02:29:54;23.48;;;19.25;;
46563;SDS011;32291;52.010;4.446;2022-10-13T02:31:06;25.05;;;19.25;;
46563;SDS011;32291;52.010;4.446;2022-10-13T02:32:12;23.88;;;19.70;;
46563;SDS011;32291;52.010;4.446;2022-10-13T02:33:14;22.40;;;19.42;;
46563;SDS011;32291;52.010;4.446;2022-10-13T02:34:17;26.98;;;20.83;;
46563;SDS011;32291;52.010;4.446;2022-10-13T02:35:37;24.05;;;19.67;;
46563;SDS011;32291;52.010;4.446;2022-10-13T02:36:40;26.30;;;20.42;;
46563;SDS011;32291;52.010;4.446;2022-10-13T02:37:48;26.45;;;19.98;;
46563;SDS011;32291;52.010;4.446;2022-10-13T02:38:53;22.75;;;19.70;;
46563;SDS011;32291;52.010;4.446;2022-10-13T02:39:56;23.55;;;20.38;;
46563;SDS011;32291;52.010;4.446;2022-10-13T02:41:03;28.63;;;20.58;;
46563;SDS011;32291;52.010;4.446;2022-10-13T02:42:06;24.65;;;20.20;;
46563;SDS011;32291;52.010;4.446;2022-10-13T02:43:13;24.52;;;20.17;;
46563;SDS011;32291;52.010;4.446;2022-10-13T02:44:15;24.17;;;20.52;;
46563;SDS011;32291;52.010;4.446;2022-10-13T02:45:19;25.05;;;20.60;;
46563;SDS011;32291;52.010;4.446;2022-10-13T02:46:26;26.02;;;21.00;;
46563;SDS011;32291;52.010;4.446;2022-10-13T02:47:29;23.73;;;20.58;;
46563;SDS011;32291;52.010;4.446;2022-10-13T02:48:31;25.48;;;20.92;;
46563;SDS011;32291;52.010;4.446;2022-10-13T02:49:36;24.65;;;19.17;;
46563;SDS011;32291;52.010;4.446;2022-10-13T02:50:38;23.27;;;18.38;;
46563;SDS011;32291;52.010;4.446;2022-10-13T02:51:52;21.02;;;18.80;;
46563;SDS011;32291;52.010;4.446;2022-10-13T02:52:59;22.00;;;18.35;;
46563;SDS011;32291;52.010;4.446;2022-10-13T02:54:02;22.90;;;17.08;;
46563;SDS011;32291;52.010;4.446;2022-10-13T02:55:07;21.90;;;16.88;;
46563;SDS011;32291;52.010;4.446;2022-10-13T02:56:10;19.13;;;16.58;;
46563;SDS011;32291;52.010;4.446;2022-10-13T02:57:16;19.10;;;16.55;;
46563;SDS011;32291;52.010;4.446;2022-10-13T02:58:19;20.08;;;15.98;;
46563;SDS011;32291;52.010;4.446;2022-10-13T02:59:30;18.45;;;15.80;;
46563;SDS011;32291;52.010;4.446;2022-10-13T03:00:35;23.48;;;15.68;;
46563;SDS011;32291;52.010;4.446;2022-10-13T03:01:41;21.58;;;14.93;;
46563;SDS011;32291;52.010;4.446;2022-10-13T03:02:48;21.30;;;15.95;;
46563;SDS011;32291;52.010;4.446;2022-10-13T03:03:54;17.13;;;15.00;;
46563;SDS011;32291;52.010;4.446;2022-10-13T03:04:57;20.98;;;15.80;;
46563;SDS011;32291;52.010;4.446;2022-10-13T03:05:59;23.20;;;15.77;;
46563;SDS011;32291;52.010;4.446;2022-10-13T03:07:07;21.98;;;17.00;;
46563;SDS011;32291;52.010;4.446;2022-10-13T03:08:13;19.88;;;15.15;;
46563;SDS011;32291;52.010;4.446;2022-10-13T03:09:17;19.40;;;15.77;;
46563;SDS011;32291;52.010;4.446;2022-10-13T03:10:20;16.73;;;14.98;;
46563;SDS011;32291;52.010;4.446;2022-10-13T03:11:26;18.92;;;14.88;;
46563;SDS011;32291;52.010;4.446;2022-10-13T03:12:31;20.50;;;15.77;;
46563;SDS011;32291;52.010;4.446;2022-10-13T03:13:35;17.05;;;14.95;;
46563;SDS011;32291;52.010;4.446;2022-10-13T03:14:38;19.23;;;15.55;;
46563;SDS011;32291;52.010;4.446;2022-10-13T03:15:46;20.10;;;15.63;;
46563;SDS011;32291;52.010;4.446;2022-10-13T03:16:48;21.80;;;15.45;;
46563;SDS011;32291;52.010;4.446;2022-10-13T03:17:56;20.38;;;15.85;;
46563;SDS011;32291;52.010;4.446;2022-10-13T03:19:01;17.33;;;14.95;;
46563;SDS011;32291;52.010;4.446;2022-10-13T03:20:04;17.67;;;14.85;;
46563;SDS011;32291;52.010;4.446;2022-10-13T03:21:08;21.25;;;15.50;;
46563;SDS011;32291;52.010;4.446;2022-10-13T03:22:16;23.58;;;15.98;;
46563;SDS011;32291;52.010;4.446;2022-10-13T03:23:22;22.02;;;16.17;;
46563;SDS011;32291;52.010;4.446;2022-10-13T03:24:33;20.10;;;15.35;;
46563;SDS011;32291;52.010;4.446;2022-10-13T03:25:35;18.98;;;16.02;;
46563;SDS011;32291;52.010;4.446;2022-10-13T03:26:48;18.33;;;15.50;;
46563;SDS011;32291;52.010;4.446;2022-10-13T03:27:51;19.55;;;15.57;;
46563;SDS011;32291;52.010;4.446;2022-10-13T03:28:56;18.40;;;15.80;;
46563;SDS011;32291;52.010;4.446;2022-10-13T03:30:00;22.15;;;16.15;;
46563;SDS011;32291;52.010;4.446;2022-10-13T03:31:12;21.33;;;15.77;;
46563;SDS011;32291;52.010;4.446;2022-10-13T03:32:15;21.13;;;15.98;;
46563;SDS011;32291;52.010;4.446;2022-10-13T03:36:36;23.65;;;16.05;;
46563;SDS011;32291;52.010;4.446;2022-10-13T03:37:44;21.27;;;15.15;;
46563;SDS011;32291;52.010;4.446;2022-10-13T03:38:51;22.20;;;17.50;;
46563;SDS011;32291;52.010;4.446;2022-10-13T03:39:54;23.35;;;17.23;;
46563;SDS011;32291;52.010;4.446;2022-10-13T03:41:06;18.42;;;15.80;;
46563;SDS011;32291;52.010;4.446;2022-10-13T03:42:16;19.55;;;17.27;;
46563;SDS011;32291;52.010;4.446;2022-10-13T03:43:22;17.50;;;15.73;;
46563;SDS011;32291;52.010;4.446;2022-10-13T03:44:25;20.05;;;16.75;;
46563;SDS011;32291;52.010;4.446;2022-10-13T03:45:27;21.05;;;17.25;;
46563;SDS011;32291;52.010;4.446;2022-10-13T03:46:32;24.88;;;18.38;;
46563;SDS011;32291;52.010;4.446;2022-10-13T03:47:35;24.35;;;18.33;;
46563;SDS011;32291;52.010;4.446;2022-10-13T03:48:43;24.38;;;18.02;;
46563;SDS011;32291;52.010;4.446;2022-10-13T03:50:15;19.50;;;17.30;;
46563;SDS011;32291;52.010;4.446;2022-10-13T03:51:24;18.83;;;16.83;;
46563;SDS011;32291;52.010;4.446;2022-10-13T03:52:29;22.02;;;17.33;;
46563;SDS011;32291;52.010;4.446;2022-10-13T03:53:33;26.90;;;17.63;;
46563;SDS011;32291;52.010;4.446;2022-10-13T03:54:37;23.90;;;17.95;;
46563;SDS011;32291;52.010;4.446;2022-10-13T03:55:47;22.50;;;16.38;;
46563;SDS011;32291;52.010;4.446;2022-10-13T03:56:55;25.52;;;17.98;;
46563;SDS011;32291;52.010;4.446;2022-10-13T03:58:03;23.95;;;17.50;;
46563;SDS011;32291;52.010;4.446;2022-10-13T03:59:09;27.65;;;17.77;;
46563;SDS011;32291;52.010;4.446;2022-10-13T04:00:16;25.02;;;18.63;;
46563;SDS011;32291;52.010;4.446;2022-10-13T04:01:19;26.30;;;17.75;;
46563;SDS011;32291;52.010;4.446;2022-10-13T04:02:34;24.67;;;16.70;;
46563;SDS011;32291;52.010;4.446;2022-10-13T04:03:36;24.05;;;17.38;;
46563;SDS011;32291;52.010;4.446;2022-10-13T04:04:41;27.73;;;17.95;;
46563;SDS011;32291;52.010;4.446;2022-10-13T04:05:45;26.52;;;17.98;;
46563;SDS011;32291;52.010;4.446;2022-10-13T04:06:55;21.75;;;17.95;;
46563;SDS011;32291;52.010;4.446;2022-10-13T04:08:04;22.05;;;17.58;;
46563;SDS011;32291;52.010;4.446;2022-10-13T04:09:12;29.58;;;18.15;;
46563;SDS011;32291;52.010;4.446;2022-10-13T04:10:22;27.83;;;17.90;;
46563;SDS011;32291;52.010;4.446;2022-10-13T04:11:35;20.13;;;17.42;;
46563;SDS011;32291;52.010;4.446;2022-10-13T04:12:37;20.35;;;17.15;;
46563;SDS011;32291;52.010;4.446;2022-10-13T04:13:42;23.65;;;16.75;;
46563;SDS011;32291;52.010;4.446;2022-10-13T04:14:46;22.55;;;17.65;;
46563;SDS011;32291;52.010;4.446;2022-10-13T04:15:48;25.85;;;17.65;;
46563;SDS011;32291;52.010;4.446;2022-10-13T04:16:56;26.20;;;17.40;;
46563;SDS011;32291;52.010;4.446;2022-10-13T04:18:09;24.88;;;17.85;;
46563;SDS011;32291;52.010;4.446;2022-10-13T04:20:10;27.48;;;16.75;;
46563;SDS011;32291;52.010;4.446;2022-10-13T04:21:48;25.55;;;17.00;;
46563;SDS011;32291;52.010;4.446;2022-10-13T04:23:00;22.95;;;18.42;;
46563;SDS011;32291;52.010;4.446;2022-10-13T04:24:05;23.17;;;18.08;;
46563;SDS011;32291;52.010;4.446;2022-10-13T04:25:27;23.38;;;18.20;;
46563;SDS011;32291;52.010;4.446;2022-10-13T04:26:43;25.10;;;18.30;;
46563;SDS011;32291;52.010;4.446;2022-10-13T04:52:08;24.85;;;18.15;;
46563;SDS011;32291;52.010;4.446;2022-10-13T05:17:42;29.65;;;19.23;;
46563;SDS011;32291;52.010;4.446;2022-10-13T05:18:52;29.80;;;18.40;;
46563;SDS011;32291;52.010;4.446;2022-10-13T05:20:04;26.83;;;18.13;;
46563;SDS011;32291;52.010;4.446;2022-10-13T05:21:18;27.13;;;18.10;;
46563;SDS011;32291;52.010;4.446;2022-10-13T05:22:37;24.75;;;16.88;;
46563;SDS011;32291;52.010;4.446;2022-10-13T05:24:03;27.23;;;17.48;;
46563;SDS011;32291;52.010;4.446;2022-10-13T05:25:13;25.55;;;16.70;;
46563;SDS011;32291;52.010;4.446;2022-10-13T05:26:23;23.88;;;17.88;;
46563;SDS011;32291;52.010;4.446;2022-10-13T05:27:33;26.48;;;17.10;;
46563;SDS011;32291;52.010;4.446;2022-10-13T05:28:42;27.48;;;18.20;;
46563;SDS011;32291;52.010;4.446;2022-10-13T05:29:45;24.42;;;18.77;;
46563;SDS011;32291;52.010;4.446;2022-10-13T05:30:49;26.50;;;17.50;;
46563;SDS011;32291;52.010;4.446;2022-10-13T05:31:57;24.10;;;19.63;;
46563;SDS011;32291;52.010;4.446;2022-10-13T05:33:01;22.35;;;17.88;;
46563;SDS011;32291;52.010;4.446;2022-10-13T05:34:04;23.33;;;18.85;;
46563;SDS011;32291;52.010;4.446;2022-10-13T05:35:10;23.73;;;18.30;;
46563;SDS011;32291;52.010;4.446;2022-10-13T05:36:17;29.88;;;18.63;;
46563;SDS011;32291;52.010;4.446;2022-10-13T05:37:27;25.63;;;17.75;;
46563;SDS011;32291;52.010;4.446;2022-10-13T05:38:31;23.52;;;17.67;;
46563;SDS011;32291;52.010;4.446;2022-10-13T05:39:36;25.55;;;18.90;;
46563;SDS011;32291;52.010;4.446;2022-10-13T05:40:42;26.05;;;18.63;;
46563;SDS011;32291;52.010;4.446;2022-10-13T05:41:57;20.75;;;17.48;;
46563;SDS011;32291;52.010;4.446;2022-10-13T05:43:02;26.92;;;17.88;;
46563;SDS011;32291;52.010;4.446;2022-10-13T05:44:07;22.42;;;18.48;;
46563;SDS011;32291;52.010;4.446;2022-10-13T05:45:21;25.75;;;17.85;;
46563;SDS011;32291;52.010;4.446;2022-10-13T05:46:31;23.45;;;17.80;;
46563;SDS011;32291;52.010;4.446;2022-10-13T05:47:34;19.38;;;17.27;;
46563;SDS011;32291;52.010;4.446;2022-10-13T05:48:36;27.50;;;18.58;;
46563;SDS011;32291;52.010;4.446;2022-10-13T05:49:42;27.70;;;18.50;;
46563;SDS011;32291;52.010;4.446;2022-10-13T05:50:44;21.90;;;17.70;;
46563;SDS011;32291;52.010;4.446;2022-10-13T05:51:47;20.85;;;17.17;;
46563;SDS011;32291;52.010;4.446;2022-10-13T05:53:04;25.35;;;18.42;;
46563;SDS011;32291;52.010;4.446;2022-10-13T05:54:15;25.05;;;18.00;;
46563;SDS011;32291;52.010;4.446;2022-10-13T05:55:35;23.00;;;17.35;;
46563;SDS011;32291;52.010;4.446;2022-10-13T05:56:40;24.13;;;17.60;;
46563;SDS011;32291;52.010;4.446;2022-10-13T05:57:59;25.58;;;18.42;;
46563;SDS011;32291;52.010;4.446;2022-10-13T05:59:03;24.27;;;17.63;;
46563;SDS011;32291;52.010;4.446;2022-10-13T06:00:16;25.85;;;17.92;;
46563;SDS011;32291;52.010;4.446;2022-10-13T06:01:24;26.05;;;18.27;;
46563;SDS011;32291;52.010;4.446;2022-10-13T06:02:42;29.05;;;19.23;;
46563;SDS011;32291;52.010;4.446;2022-10-13T06:04:14;29.88;;;18.75;;
46563;SDS011;32291;52.010;4.446;2022-10-13T06:05:30;26.90;;;18.50;;
46563;SDS011;32291;52.010;4.446;2022-10-13T06:06:36;23.98;;;18.27;;
46563;SDS011;32291;52.010;4.446;2022-10-13T06:07:40;23.52;;;19.17;;
46563;SDS011;32291;52.010;4.446;2022-10-13T06:08:48;28.05;;;19.30;;
46563;SDS011;32291;52.010;4.446;2022-10-13T06:09:52;26.27;;;20.33;;
46563;SDS011;32291;52.010;4.446;2022-10-13T06:10:58;25.90;;;18.75;;
46563;SDS011;32291;52.010;4.446;2022-10-13T06:12:13;26.77;;;19.85;;
46563;SDS011;32291;52.010;4.446;2022-10-13T06:13:15;27.55;;;19.13;;
46563;SDS011;32291;52.010;4.446;2022-10-13T06:14:30;24.70;;;19.58;;
46563;SDS011;32291;52.010;4.446;2022-10-13T06:15:36;24.35;;;18.83;;
46563;SDS011;32291;52.010;4.446;2022-10-13T06:16:38;27.27;;;18.80;;
46563;SDS011;32291;52.010;4.446;2022-10-13T06:17:43;31.67;;;20.13;;
46563;SDS011;32291;52.010;4.446;2022-10-13T06:18:46;22.95;;;18.02;;
46563;SDS011;32291;52.010;4.446;2022-10-13T06:19:48;21.15;;;18.67;;
46563;SDS011;32291;52.010;4.446;2022-10-13T06:20:51;29.73;;;19.20;;
46563;SDS011;32291;52.010;4.446;2022-10-13T06:21:55;22.33;;;17.80;;
46563;SDS011;32291;52.010;4.446;2022-10-13T06:23:03;23.50;;;18.52;;
46563;SDS011;32291;52.010;4.446;2022-10-13T06:24:08;24.23;;;18.95;;
46563;SDS011;32291;52.010;4.446;2022-10-13T06:25:12;23.20;;;18.08;;
46563;SDS011;32291;52.010;4.446;2022-10-13T06:26:16;26.08;;;19.98;;
46563;SDS011;32291;52.010;4.446;2022-10-13T06:27:24;22.52;;;20.08;;
46563;SDS011;32291;52.010;4.446;2022-10-13T06:28:27;27.33;;;21.50;;
46563;SDS011;32291;52.010;4.446;2022-10-13T06:29:32;23.33;;;19.88;;
46563;SDS011;32291;52.010;4.446;2022-10-13T06:30:36;24.25;;;20.15;;
46563;SDS011;32291;52.010;4.446;2022-10-13T06:31:44;25.85;;;20.70;;
46563;SDS011;32291;52.010;4.446;2022-10-13T06:32:53;25.95;;;20.95;;
46563;SDS011;32291;52.010;4.446;2022-10-13T06:34:05;23.50;;;21.15;;
46563;SDS011;32291;52.010;4.446;2022-10-13T06:35:07;24.00;;;21.48;;
46563;SDS011;32291;52.010;4.446;2022-10-13T06:36:15;24.02;;;21.55;;
46563;SDS011;32291;52.010;4.446;2022-10-13T06:37:21;22.23;;;19.83;;
46563;SDS011;32291;52.010;4.446;2022-10-13T06:38:32;27.17;;;21.33;;
46563;SDS011;32291;52.010;4.446;2022-10-13T06:39:44;28.40;;;22.25;;
46563;SDS011;32291;52.010;4.446;2022-10-13T06:40:58;23.70;;;21.15;;
46563;SDS011;32291;52.010;4.446;2022-10-13T06:42:05;24.23;;;21.80;;
46563;SDS011;32291;52.010;4.446;2022-10-13T06:43:14;25.45;;;21.42;;
46563;SDS011;32291;52.010;4.446;2022-10-13T06:44:25;31.15;;;22.23;;
46563;SDS011;32291;52.010;4.446;2022-10-13T06:45:48;24.85;;;21.38;;
46563;SDS011;32291;52.010;4.446;2022-10-13T06:47:02;24.92;;;22.33;;
46563;SDS011;32291;52.010;4.446;2022-10-13T06:48:18;24.65;;;21.80;;
46563;SDS011;32291;52.010;4.446;2022-10-13T06:49:29;27.27;;;22.63;;
46563;SDS011;32291;52.010;4.446;2022-10-13T06:51:05;26.85;;;21.10;;
46563;SDS011;32291;52.010;4.446;2022-10-13T06:52:35;29.02;;;22.33;;
46563;SDS011;32291;52.010;4.446;2022-10-13T06:53:56;24.55;;;22.08;;
46563;SDS011;32291;52.010;4.446;2022-10-13T06:55:15;26.52;;;22.08;;
46563;SDS011;32291;52.010;4.446;2022-10-13T06:56:46;28.10;;;22.55;;
46563;SDS011;32291;52.010;4.446;2022-10-13T06:58:08;29.08;;;22.25;;
46563;SDS011;32291;52.010;4.446;2022-10-13T06:59:32;25.90;;;22.70;;
46563;SDS011;32291;52.010;4.446;2022-10-13T07:01:13;24.17;;;21.88;;
46563;SDS011;32291;52.010;4.446;2022-10-13T07:03:06;25.90;;;21.30;;
46563;SDS011;32291;52.010;4.446;2022-10-13T07:04:39;29.65;;;22.55;;
46563;SDS011;32291;52.010;4.446;2022-10-13T07:06:05;24.13;;;21.52;;
46563;SDS011;32291;52.010;4.446;2022-10-13T07:07:35;24.83;;;22.02;;
46563;SDS011;32291;52.010;4.446;2022-10-13T07:09:18;24.67;;;22.08;;
46563;SDS011;32291;52.010;4.446;2022-10-13T07:10:30;23.65;;;21.05;;
46563;SDS011;32291;52.010;4.446;2022-10-13T07:11:38;29.27;;;22.42;;
46563;SDS011;32291;52.010;4.446;2022-10-13T07:13:35;24.80;;;21.35;;
46563;SDS011;32291;52.010;4.446;2022-10-13T07:14:57;22.33;;;20.13;;
46563;SDS011;32291;52.010;4.446;2022-10-13T07:17:00;24.25;;;20.63;;
46563;SDS011;32291;52.010;4.446;2022-10-13T07:18:17;21.38;;;19.05;;
46563;SDS011;32291;52.010;4.446;2022-10-13T07:27:42;21.20;;;17.88;;
46563;SDS011;32291;52.010;4.446;2022-10-13T07:30:02;18.88;;;16.98;;
46563;SDS011;32291;52.010;4.446;2022-10-13T07:34:30;19.42;;;16.40;;
46563;SDS011;32291;52.010;4.446;2022-10-13T07:36:10;20.67;;;15.90;;
46563;SDS011;32291;52.010;4.446;2022-10-13T07:38:46;18.80;;;16.88;;
46563;SDS011;32291;52.010;4.446;2022-10-13T07:41:11;19.85;;;16.60;;
46563;SDS011;32291;52.010;4.446;2022-10-13T07:44:00;22.73;;;16.02;;
46563;SDS011;32291;52.010;4.446;2022-10-13T07:45:17;18.10;;;14.77;;
46563;SDS011;32291;52.010;4.446;2022-10-13T07:46:42;17.42;;;15.02;;
46563;SDS011;32291;52.010;4.446;2022-10-13T07:48:34;24.40;;;16.52;;
46563;SDS011;32291;52.010;4.446;2022-10-13T07:49:57;17.33;;;15.38;;
46563;SDS011;32291;52.010;4.446;2022-10-13T07:51:29;16.85;;;15.15;;
46563;SDS011;32291;52.010;4.446;2022-10-13T07:53:04;17.23;;;15.00;;
46563;SDS011;32291;52.010;4.446;2022-10-13T07:54:42;15.75;;;14.13;;
46563;SDS011;32291;52.010;4.446;2022-10-13T07:56:20;19.85;;;15.63;;
46563;SDS011;32291;52.010;4.446;2022-10-13T08:02:31;17.85;;;15.07;;
46563;SDS011;32291;52.010;4.446;2022-10-13T08:15:32;22.27;;;17.05;;
46563;SDS011;32291;52.010;4.446;2022-10-13T08:18:15;22.08;;;17.20;;
46563;SDS011;32291;52.010;4.446;2022-10-13T08:20:12;17.88;;;16.02;;
46563;SDS011;32291;52.010;4.446;2022-10-13T08:21:48;17.75;;;15.95;;
46563;SDS011;32291;52.010;4.446;2022-10-13T08:23:33;19.77;;;16.13;;
46563;SDS011;32291;52.010;4.446;2022-10-13T08:25:22;18.60;;;16.52;;
46563;SDS011;32291;52.010;4.446;2022-10-13T08:28:38;21.67;;;16.25;;
46563;SDS011;32291;52.010;4.446;2022-10-13T08:30:04;24.25;;;18.40;;
46563;SDS011;32291;52.010;4.446;2022-10-13T08:31:42;21.55;;;17.58;;
46563;SDS011;32291;52.010;4.446;2022-10-13T08:33:13;19.85;;;16.42;;
46563;SDS011;32291;52.010;4.446;2022-10-13T08:35:46;19.58;;;16.88;;
46563;SDS011;32291;52.010;4.446;2022-10-13T08:40:49;18.85;;;16.13;;
46563;SDS011;32291;52.010;4.446;2022-10-13T08:45:56;19.27;;;15.60;;
46563;SDS011;32291;52.010;4.446;2022-10-13T08:50:15;18.00;;;14.25;;
46563;SDS011;32291;52.010;4.446;2022-10-13T08:58:09;19.98;;;16.20;;
46563;SDS011;32291;52.010;4.446;2022-10-13T09:00:45;18.15;;;15.50;;
46563;SDS011;32291;52.010;4.446;2022-10-13T09:02:45;23.63;;;16.52;;
46563;SDS011;32291;52.010;4.446;2022-10-13T09:05:26;17.90;;;15.55;;
46563;SDS011;32291;52.010;4.446;2022-10-13T09:07:30;18.58;;;16.33;;
46563;SDS011;32291;52.010;4.446;2022-10-13T09:09:11;19.80;;;16.50;;
46563;SDS011;32291;52.010;4.446;2022-10-13T09:10:30;22.67;;;17.60;;
46563;SDS011;32291;52.010;4.446;2022-10-13T09:14:07;21.25;;;17.67;;
46563;SDS011;32291;52.010;4.446;2022-10-13T09:15:49;19.52;;;16.73;;
46563;SDS011;32291;52.010;4.446;2022-10-13T09:17:18;20.73;;;18.73;;
46563;SDS011;32291;52.010;4.446;2022-10-13T09:18:36;22.15;;;17.75;;
46563;SDS011;32291;52.010;4.446;2022-10-13T09:19:58;27.52;;;20.35;;
46563;SDS011;32291;52.010;4.446;2022-10-13T09:21:44;23.13;;;20.60;;
46563;SDS011;32291;52.010;4.446;2022-10-13T09:24:48;26.25;;;20.70;;